createdAt,value
2018-06-22T00:00:33.807Z,49.05
2018-06-22T00:01:33.816Z,49.71
2018-06-22T00:02:33.816Z,50.38
2018-06-22T00:03:33.826Z,49.81
2018-06-22T00:04:33.824Z,49.84
2018-06-22T00:05:33.828Z,50.22
2018-06-22T00:06:33.836Z,49.62
2018-06-22T00:07:33.864Z,49.81
2018-06-22T00:08:33.856Z,50.20
2018-06-22T00:09:33.868Z,50.38
2018-06-22T00:10:33.848Z,50.77
2018-06-22T00:11:33.864Z,50.58
2018-06-22T00:12:33.868Z,51.15
2018-06-22T00:13:33.871Z,50.96
2018-06-22T00:14:33.865Z,51.42
2018-06-22T00:15:33.875Z,51.82
2018-06-22T00:16:33.880Z,51.25
2018-06-22T00:17:33.884Z,50.10
2018-06-22T00:18:33.887Z,49.91
2018-06-22T00:19:33.904Z,51.44
2018-06-22T00:20:33.897Z,50.48
2018-06-22T00:21:33.899Z,50.67
2018-06-22T00:22:33.919Z,51.54
2018-06-22T00:23:33.907Z,50.87
2018-06-22T00:24:33.967Z,50.87
2018-06-22T00:25:33.922Z,50.58
2018-06-22T00:26:33.919Z,51.63
2018-06-22T00:27:33.974Z,52.01
2018-06-22T00:28:33.931Z,51.54
2018-06-22T00:29:33.933Z,51.63
2018-06-22T00:30:33.941Z,51.82
2018-06-22T00:31:33.949Z,52.01
2018-06-22T00:32:33.980Z,52.11
2018-06-22T00:33:33.979Z,52.40
2018-06-22T00:34:33.985Z,52.47
2018-06-22T00:35:33.959Z,52.01
2018-06-22T00:36:33.994Z,52.01
2018-06-22T00:37:33.969Z,52.18
2018-06-22T00:38:33.971Z,52.75
2018-06-22T00:39:33.983Z,52.95
2018-06-22T00:40:33.992Z,52.85
2018-06-22T00:41:33.993Z,53.71
2018-06-22T00:42:33.990Z,53.78
2018-06-22T00:43:33.997Z,53.42
2018-06-22T00:44:34.002Z,53.62
2018-06-22T00:45:34.033Z,53.04
2018-06-22T00:46:34.003Z,53.23
2018-06-22T00:47:34.019Z,53.42
2018-06-22T00:48:34.040Z,53.62
2018-06-22T00:49:34.023Z,53.62
2018-06-22T00:50:34.049Z,53.07
2018-06-22T00:51:34.031Z,53.14
2018-06-22T00:52:34.030Z,53.52
2018-06-22T00:53:34.035Z,53.23
2018-06-22T00:54:34.042Z,54.36
2018-06-22T00:55:34.045Z,54.45
2018-06-22T00:56:34.047Z,54.45
2018-06-22T00:57:34.083Z,54.57
2018-06-22T00:58:34.052Z,54.57
2018-06-22T00:59:34.062Z,54.38
2018-06-22T01:00:34.077Z,54.10
2018-06-22T01:01:34.064Z,54.67
2018-06-22T01:02:34.082Z,54.38
2018-06-22T01:03:34.075Z,53.91
2018-06-22T01:04:34.081Z,54.48
2018-06-22T01:05:34.087Z,54.48
2018-06-22T01:06:34.088Z,53.52
2018-06-22T01:07:34.099Z,53.81
2018-06-22T01:08:34.095Z,53.62
2018-06-22T01:09:34.100Z,53.42
2018-06-22T01:10:34.114Z,55.34
2018-06-22T01:11:34.104Z,56.08
2018-06-22T01:12:34.120Z,55.12
2018-06-22T01:13:34.116Z,54.67
2018-06-22T01:14:34.121Z,54.67
2018-06-22T01:15:34.121Z,54.67
2018-06-22T01:16:34.122Z,54.00
2018-06-22T01:17:34.130Z,54.48
2018-06-22T01:18:34.150Z,54.57
2018-06-22T01:19:34.140Z,54.00
2018-06-22T01:20:34.144Z,54.45
2018-06-22T01:21:34.177Z,55.41
2018-06-22T01:22:36.896Z,55.69
2018-06-22T01:23:34.154Z,55.24
2018-06-22T01:24:34.189Z,54.93
2018-06-22T01:25:34.173Z,55.88
2018-06-22T01:26:34.168Z,55.88
2018-06-22T01:27:34.173Z,54.96
2018-06-22T01:28:34.169Z,55.31
2018-06-22T01:29:34.172Z,55.69
2018-06-22T01:30:34.191Z,55.79
2018-06-22T01:31:34.189Z,55.79
2018-06-22T01:32:34.211Z,56.75
2018-06-22T01:33:34.188Z,55.98
2018-06-22T01:34:34.197Z,56.17
2018-06-22T01:35:34.194Z,56.46
2018-06-22T01:36:34.207Z,55.98
2018-06-22T01:37:34.213Z,55.88
2018-06-22T01:38:34.212Z,55.31
2018-06-22T01:39:34.211Z,56.17
2018-06-22T01:40:34.215Z,56.56
2018-06-22T01:41:34.227Z,55.51
2018-06-22T01:42:34.229Z,55.79
2018-06-22T01:43:34.248Z,56.56
2018-06-22T01:44:34.227Z,55.88
2018-06-22T01:45:34.233Z,56.91
2018-06-22T01:46:34.260Z,56.84
2018-06-22T01:47:34.241Z,56.72
2018-06-22T01:48:34.244Z,57.87
2018-06-22T01:49:34.248Z,57.68
2018-06-22T01:50:34.273Z,57.90
2018-06-22T01:51:34.256Z,57.20
2018-06-22T01:52:34.288Z,57.29
2018-06-22T01:53:34.264Z,57.20
2018-06-22T01:54:34.284Z,57.23
2018-06-22T01:55:34.278Z,56.56
2018-06-22T01:56:34.278Z,57.29
2018-06-22T01:57:34.281Z,57.42
2018-06-22T01:58:34.304Z,57.32
2018-06-22T01:59:34.290Z,56.72
2018-06-22T02:00:34.288Z,57.04
2018-06-22T02:01:34.316Z,56.91
2018-06-22T02:02:34.296Z,57.42
2018-06-22T02:03:34.315Z,57.42
2018-06-22T02:04:34.305Z,57.13
2018-06-22T02:05:34.308Z,57.42
2018-06-22T02:06:34.310Z,57.04
2018-06-22T02:07:34.315Z,57.04
2018-06-22T02:08:34.316Z,57.20
2018-06-22T02:09:34.347Z,57.39
2018-06-22T02:10:34.343Z,57.01
2018-06-22T02:11:34.330Z,57.32
2018-06-22T02:12:34.329Z,57.77
2018-06-22T02:13:34.345Z,58.09
2018-06-22T02:14:34.361Z,57.70
2018-06-22T02:15:34.338Z,58.28
2018-06-22T02:16:34.353Z,57.90
2018-06-22T02:17:34.351Z,57.99
2018-06-22T02:18:34.348Z,57.04
2018-06-22T02:19:34.412Z,57.10
2018-06-22T02:20:34.360Z,58.28
2018-06-22T02:21:34.367Z,57.04
2018-06-22T02:22:34.366Z,58.34
2018-06-22T02:23:34.365Z,58.73
2018-06-22T02:24:34.378Z,58.37
2018-06-22T02:25:34.385Z,58.63
2018-06-22T02:26:34.394Z,59.30
2018-06-22T02:27:34.384Z,59.14
2018-06-22T02:28:34.396Z,58.18
2018-06-22T02:29:34.387Z,57.61
2018-06-22T02:30:34.396Z,58.18
2018-06-22T02:31:34.433Z,57.97
2018-06-22T02:32:34.407Z,58.83
2018-06-22T02:33:34.404Z,59.30
2018-06-22T02:34:34.407Z,58.15
2018-06-22T02:35:34.437Z,57.68
2018-06-22T02:36:34.416Z,57.51
2018-06-22T02:37:34.412Z,57.58
2018-06-22T02:38:34.420Z,58.15
2018-06-22T02:39:34.420Z,58.47
2018-06-22T02:40:34.452Z,58.15
2018-06-22T02:41:34.425Z,57.90
2018-06-22T02:42:34.427Z,57.99
2018-06-22T02:43:34.438Z,57.99
2018-06-22T02:44:34.435Z,57.70
2018-06-22T02:45:34.437Z,58.15
2018-06-22T02:46:34.440Z,59.30
2018-06-22T02:47:34.471Z,59.20
2018-06-22T02:48:34.444Z,59.69
2018-06-22T02:49:34.475Z,59.30
2018-06-22T02:50:34.452Z,59.59
2018-06-22T02:51:34.458Z,58.83
2018-06-22T02:52:34.482Z,59.40
2018-06-22T02:53:34.461Z,58.73
2018-06-22T02:54:34.470Z,58.44
2018-06-22T02:55:34.471Z,58.73
2018-06-22T02:56:34.468Z,58.83
2018-06-22T02:57:34.504Z,59.49
2018-06-22T02:58:34.484Z,59.78
2018-06-22T02:59:34.481Z,59.97
2018-06-22T03:00:34.494Z,59.30
2018-06-22T03:01:34.491Z,59.05
2018-06-22T03:02:34.492Z,59.49
2018-06-22T03:03:34.492Z,59.52
2018-06-22T03:04:34.496Z,59.30
2018-06-22T03:05:34.523Z,60.33
2018-06-22T03:06:34.524Z,59.69
2018-06-22T03:07:34.505Z,59.78
2018-06-22T03:08:34.508Z,59.75
2018-06-22T03:09:34.512Z,60.55
2018-06-22T03:10:34.514Z,60.74
2018-06-22T03:11:34.525Z,60.90
2018-06-22T03:12:34.526Z,61.12
2018-06-22T03:13:34.524Z,60.61
2018-06-22T03:14:34.542Z,61.28
2018-06-22T03:15:34.542Z,61.31
2018-06-22T03:16:34.531Z,60.90
2018-06-22T03:17:34.534Z,60.93
2018-06-22T03:18:34.541Z,59.94
2018-06-22T03:19:34.553Z,61.02
2018-06-22T03:20:34.541Z,60.99
2018-06-22T03:21:34.546Z,60.90
2018-06-22T03:22:34.554Z,61.57
2018-06-22T03:23:34.549Z,61.38
2018-06-22T03:24:34.573Z,61.28
2018-06-22T03:25:34.557Z,61.19
2018-06-22T03:26:34.579Z,60.99
2018-06-22T03:27:34.570Z,61.38
2018-06-22T03:28:34.566Z,61.28
2018-06-22T03:29:34.571Z,60.45
2018-06-22T03:30:34.583Z,60.45
2018-06-22T03:31:34.598Z,60.80
2018-06-22T03:32:34.596Z,61.38
2018-06-22T03:33:34.588Z,60.93
2018-06-22T03:34:34.586Z,60.61
2018-06-22T03:35:34.584Z,59.88
2018-06-22T03:36:34.588Z,60.35
2018-06-22T03:37:34.604Z,60.55
2018-06-22T03:38:34.596Z,61.12
2018-06-22T03:39:34.621Z,60.64
2018-06-22T03:40:34.613Z,61.02
2018-06-22T03:41:34.620Z,60.99
2018-06-22T03:42:34.604Z,61.09
2018-06-22T03:43:34.628Z,60.42
2018-06-22T03:44:34.614Z,60.83
2018-06-22T03:45:34.620Z,61.02
2018-06-22T03:46:34.631Z,60.45
2018-06-22T03:47:34.641Z,60.61
2018-06-22T03:48:34.633Z,60.99
2018-06-22T03:49:34.635Z,60.83
2018-06-22T03:50:34.637Z,60.80
2018-06-22T03:51:34.639Z,60.90
2018-06-22T03:52:34.650Z,61.38
2018-06-22T03:53:34.645Z,61.09
2018-06-22T03:54:34.646Z,61.57
2018-06-22T03:55:34.646Z,61.47
2018-06-22T03:56:34.665Z,61.02
2018-06-22T03:57:34.681Z,60.83
2018-06-22T03:58:34.653Z,61.31
2018-06-22T03:59:34.670Z,61.09
2018-06-22T04:00:34.661Z,61.47
2018-06-22T04:01:34.659Z,61.66
2018-06-22T04:02:34.661Z,61.57
2018-06-22T04:03:34.672Z,60.80
2018-06-22T04:04:34.667Z,60.55
2018-06-22T04:05:34.674Z,61.22
2018-06-22T04:06:34.684Z,60.83
2018-06-22T04:07:34.704Z,60.93
2018-06-22T04:08:34.689Z,60.35
2018-06-22T04:09:34.685Z,61.79
2018-06-22T04:10:34.690Z,61.57
2018-06-22T04:11:34.700Z,61.98
2018-06-22T04:12:34.693Z,61.85
2018-06-22T04:13:34.730Z,61.57
2018-06-22T04:14:34.699Z,60.71
2018-06-22T04:15:34.707Z,60.71
2018-06-22T04:16:34.711Z,60.71
2018-06-22T04:17:34.705Z,61.19
2018-06-22T04:18:34.710Z,61.38
2018-06-22T04:19:34.732Z,60.90
2018-06-22T04:20:34.749Z,61.12
2018-06-22T04:21:34.729Z,60.55
2018-06-22T04:22:34.723Z,61.38
2018-06-22T04:23:34.740Z,61.85
2018-06-22T04:24:34.732Z,61.22
2018-06-22T04:25:34.728Z,61.60
2018-06-22T04:26:34.733Z,60.93
2018-06-22T04:27:34.738Z,59.88
2018-06-22T04:28:34.738Z,59.78
2018-06-22T04:29:34.740Z,59.43
2018-06-22T04:30:34.743Z,59.52
2018-06-22T04:31:34.752Z,60.45
2018-06-22T04:32:34.759Z,60.38
2018-06-22T04:33:34.755Z,59.30
2018-06-22T04:34:34.782Z,59.33
2018-06-22T04:35:34.758Z,59.20
2018-06-22T04:36:34.758Z,60.45
2018-06-22T04:37:34.775Z,60.83
2018-06-22T04:38:34.790Z,59.97
2018-06-22T04:39:34.771Z,59.69
2018-06-22T04:40:34.770Z,59.97
2018-06-22T04:41:34.774Z,60.06
2018-06-22T04:42:34.786Z,60.29
2018-06-22T04:43:34.782Z,60.86
2018-06-22T04:44:34.790Z,60.00
2018-06-22T04:45:34.798Z,60.83
2018-06-22T04:46:34.793Z,60.83
2018-06-22T04:47:34.856Z,61.41
2018-06-22T04:48:34.793Z,61.41
2018-06-22T04:49:34.826Z,60.74
2018-06-22T04:50:34.800Z,61.41
2018-06-22T04:51:34.815Z,61.02
2018-06-22T04:52:34.807Z,59.97
2018-06-22T04:53:34.840Z,61.02
2018-06-22T04:54:34.813Z,60.55
2018-06-22T04:55:34.816Z,60.64
2018-06-22T04:56:34.822Z,60.99
2018-06-22T04:57:34.825Z,61.38
2018-06-22T04:58:34.829Z,60.90
2018-06-22T04:59:34.834Z,60.80
2018-06-22T05:00:34.834Z,60.35
2018-06-22T05:01:34.896Z,61.09
2018-06-22T05:02:34.833Z,61.09
2018-06-22T05:03:34.892Z,60.55
2018-06-22T05:04:34.841Z,60.16
2018-06-22T05:05:34.859Z,60.80
2018-06-22T05:06:34.846Z,60.64
2018-06-22T05:07:34.850Z,59.49
2018-06-22T05:08:34.857Z,59.97
2018-06-22T05:09:34.855Z,60.26
2018-06-22T05:10:34.913Z,60.80
2018-06-22T05:11:34.862Z,60.74
2018-06-22T05:12:34.866Z,59.94
2018-06-22T05:13:34.871Z,60.52
2018-06-22T05:14:34.873Z,60.45
2018-06-22T05:15:34.915Z,60.90
2018-06-22T05:16:34.876Z,60.93
2018-06-22T05:17:34.904Z,59.97
2018-06-22T05:18:34.883Z,59.20
2018-06-22T05:19:34.889Z,59.69
2018-06-22T05:20:34.888Z,59.78
2018-06-22T05:21:34.889Z,59.69
2018-06-22T05:22:34.902Z,58.44
2018-06-22T05:23:34.899Z,59.08
2018-06-22T05:24:34.900Z,59.84
2018-06-22T05:25:34.904Z,59.30
2018-06-22T05:26:34.972Z,59.49
2018-06-22T05:27:34.911Z,59.11
2018-06-22T05:28:34.910Z,59.01
2018-06-22T05:29:34.931Z,59.01
2018-06-22T05:30:34.919Z,59.30
2018-06-22T05:31:34.925Z,59.78
2018-06-22T05:32:35.750Z,59.97
2018-06-22T05:33:35.311Z,59.20
2018-06-22T05:34:35.319Z,59.56
2018-06-22T05:35:35.320Z,58.83
2018-06-22T05:36:35.311Z,58.98
2018-06-22T05:37:35.337Z,59.27
2018-06-22T05:38:36.308Z,59.30
2018-06-22T05:39:36.582Z,59.84
2018-06-22T05:40:35.821Z,60.33
2018-06-22T05:41:36.989Z,59.75
2018-06-22T05:42:37.196Z,59.47
2018-06-22T05:43:35.727Z,59.18
2018-06-22T05:44:35.794Z,58.44
2018-06-22T05:45:36.195Z,59.01
2018-06-22T05:46:36.331Z,57.97
2018-06-22T05:47:35.478Z,58.89
2018-06-22T05:48:35.617Z,59.30
2018-06-22T05:49:35.423Z,59.11
2018-06-22T05:50:34.993Z,58.15
2018-06-22T05:51:35.919Z,57.77
2018-06-22T05:52:35.853Z,57.84
2018-06-22T05:53:35.388Z,58.03
2018-06-22T05:54:35.449Z,58.15
2018-06-22T05:55:35.019Z,58.15
2018-06-22T05:56:35.422Z,57.87
2018-06-22T05:57:35.479Z,57.10
2018-06-22T05:58:35.415Z,57.29
2018-06-22T05:59:35.430Z,57.87
2018-06-22T06:00:35.450Z,57.10
2018-06-22T06:01:35.406Z,56.72
2018-06-22T06:02:36.155Z,56.91
2018-06-22T06:03:35.515Z,57.01
2018-06-22T06:04:35.106Z,57.97
2018-06-22T06:05:35.072Z,57.87
2018-06-22T06:06:35.150Z,57.20
2018-06-22T06:07:35.119Z,56.72
2018-06-22T06:08:35.064Z,58.06
2018-06-22T06:09:35.044Z,57.32
2018-06-22T06:10:35.046Z,56.56
2018-06-22T06:11:35.052Z,57.01
2018-06-22T06:12:35.186Z,55.98
2018-06-22T06:13:35.167Z,55.60
2018-06-22T06:14:35.055Z,55.98
2018-06-22T06:15:35.151Z,56.17
2018-06-22T06:16:35.126Z,56.17
2018-06-22T06:17:35.138Z,55.79
2018-06-22T06:18:35.107Z,54.93
2018-06-22T06:19:35.090Z,55.88
2018-06-22T06:20:35.070Z,54.74
2018-06-22T06:21:35.074Z,55.22
2018-06-22T06:22:35.176Z,56.08
2018-06-22T06:23:35.080Z,56.17
2018-06-22T06:24:35.085Z,55.60
2018-06-22T06:25:35.147Z,55.02
2018-06-22T06:26:35.200Z,55.15
2018-06-22T06:27:35.096Z,55.63
2018-06-22T06:28:35.099Z,55.02
2018-06-22T06:29:35.103Z,55.02
2018-06-22T06:30:35.113Z,54.86
2018-06-22T06:31:35.110Z,54.45
2018-06-22T06:32:35.115Z,54.74
2018-06-22T06:33:35.114Z,54.52
2018-06-22T06:34:35.146Z,54.61
2018-06-22T06:35:35.230Z,54.45
2018-06-22T06:36:35.148Z,53.04
2018-06-22T06:37:35.214Z,54.10
2018-06-22T06:38:35.131Z,54.28
2018-06-22T06:39:35.182Z,54.38
2018-06-22T06:40:35.151Z,53.91
2018-06-22T06:41:35.151Z,53.49
2018-06-22T06:42:35.166Z,53.02
2018-06-22T06:43:35.212Z,53.97
2018-06-22T06:44:35.196Z,54.45
2018-06-22T06:45:35.158Z,53.59
2018-06-22T06:46:35.159Z,53.04
2018-06-22T06:47:35.184Z,53.30
2018-06-22T06:48:35.246Z,53.88
2018-06-22T06:49:35.198Z,54.36
2018-06-22T06:50:35.174Z,54.45
2018-06-22T06:51:35.248Z,54.36
2018-06-22T06:52:35.224Z,54.93
2018-06-22T06:53:35.224Z,54.67
2018-06-22T06:54:35.271Z,54.38
2018-06-22T06:55:35.203Z,54.28
2018-06-22T06:56:35.267Z,54.64
2018-06-22T06:57:35.270Z,54.55
2018-06-22T06:58:35.230Z,54.45
2018-06-22T06:59:36.023Z,54.67
2018-06-22T07:00:35.207Z,54.86
2018-06-22T07:01:35.256Z,54.67
2018-06-22T07:02:35.293Z,53.42
2018-06-22T07:03:35.221Z,53.04
2018-06-22T07:04:35.232Z,53.07
2018-06-22T07:05:35.237Z,52.11
2018-06-22T07:06:35.236Z,52.69
2018-06-22T07:07:35.245Z,52.78
2018-06-22T07:08:35.256Z,52.95
2018-06-22T07:09:35.333Z,51.99
2018-06-22T07:10:35.284Z,53.14
2018-06-22T07:11:35.302Z,53.07
2018-06-22T07:12:35.316Z,52.01
2018-06-22T07:13:35.259Z,52.01
2018-06-22T07:14:35.296Z,53.07
2018-06-22T07:15:35.292Z,52.78
2018-06-22T07:16:35.428Z,52.97
2018-06-22T07:17:35.276Z,51.63
2018-06-22T07:18:35.313Z,52.14
2018-06-22T07:19:35.403Z,53.00
2018-06-22T07:20:35.286Z,52.81
2018-06-22T07:21:35.290Z,52.42
2018-06-22T07:22:35.453Z,51.46
2018-06-22T07:23:35.316Z,51.54
2018-06-22T07:24:35.379Z,51.63
2018-06-22T07:25:35.411Z,51.44
2018-06-22T07:26:35.388Z,52.04
2018-06-22T07:27:35.359Z,52.04
2018-06-22T07:28:35.381Z,50.99
2018-06-22T07:29:35.524Z,51.28
2018-06-22T07:30:35.502Z,50.79
2018-06-22T07:31:35.363Z,49.84
2018-06-22T07:32:35.371Z,50.00
2018-06-22T07:33:35.338Z,51.03
2018-06-22T07:34:35.340Z,50.96
2018-06-22T07:35:35.353Z,52.01
2018-06-22T07:36:35.378Z,52.01
2018-06-22T07:37:35.408Z,53.07
2018-06-22T07:38:35.465Z,52.78
2018-06-22T07:39:35.516Z,52.11
2018-06-22T07:40:35.541Z,50.87
2018-06-22T07:41:35.392Z,51.44
2018-06-22T07:42:36.082Z,52.30
2018-06-22T07:43:35.414Z,52.20
2018-06-22T07:44:35.414Z,51.65
2018-06-22T07:45:35.389Z,51.92
2018-06-22T07:46:35.401Z,51.92
2018-06-22T07:47:35.442Z,51.82
2018-06-22T07:48:35.408Z,50.77
2018-06-22T07:49:35.417Z,50.77
2018-06-22T07:50:35.426Z,50.77
2018-06-22T07:51:35.488Z,50.79
2018-06-22T07:52:35.425Z,51.37
2018-06-22T07:53:35.437Z,50.70
2018-06-22T07:54:35.456Z,51.46
2018-06-22T07:55:35.435Z,50.89
2018-06-22T07:56:35.437Z,51.15
2018-06-22T07:57:35.448Z,51.92
2018-06-22T07:58:35.506Z,50.77
2018-06-22T07:59:35.454Z,50.58
2018-06-22T08:00:35.502Z,51.18
2018-06-22T08:01:35.520Z,50.79
2018-06-22T08:02:35.528Z,49.74
2018-06-22T08:03:36.050Z,49.10
2018-06-22T08:04:35.569Z,49.76
2018-06-22T08:05:35.549Z,51.68
2018-06-22T08:06:35.569Z,50.73
2018-06-22T08:07:35.521Z,49.10
2018-06-22T08:08:35.539Z,48.52
2018-06-22T08:09:35.567Z,47.85
2018-06-22T08:10:35.577Z,49.79
2018-06-22T08:11:35.550Z,48.44
2018-06-22T08:12:35.629Z,48.35
2018-06-22T08:13:35.621Z,48.25
2018-06-22T08:14:37.555Z,47.68
2018-06-22T08:15:35.618Z,47.87
2018-06-22T08:16:36.529Z,48.25
2018-06-22T08:17:35.675Z,47.03
2018-06-22T08:18:37.515Z,47.41
2018-06-22T08:19:35.633Z,47.77
2018-06-22T08:20:35.640Z,47.20
2018-06-22T08:21:35.597Z,47.39
2018-06-22T08:22:35.635Z,47.58
2018-06-22T08:23:36.624Z,47.58
2018-06-22T08:24:35.596Z,47.61
2018-06-22T08:25:36.578Z,47.68
2018-06-22T08:26:35.703Z,48.71
2018-06-22T08:27:35.585Z,48.80
2018-06-22T08:28:35.723Z,48.43
2018-06-22T08:29:35.665Z,46.62
2018-06-22T08:30:35.674Z,47.01
2018-06-22T08:31:35.707Z,47.68
2018-06-22T08:32:35.721Z,47.10
2018-06-22T08:33:35.648Z,46.26
2018-06-22T08:34:35.692Z,45.86
2018-06-22T08:35:35.664Z,47.51
2018-06-22T08:36:35.664Z,46.17
2018-06-22T08:37:35.664Z,47.03
2018-06-22T08:38:35.668Z,46.58
2018-06-22T08:39:35.660Z,46.19
2018-06-22T08:40:35.656Z,46.28
2018-06-22T08:41:35.774Z,44.84
2018-06-22T08:42:36.032Z,45.88
2018-06-22T08:43:35.712Z,45.76
2018-06-22T08:44:35.790Z,46.07
2018-06-22T08:45:35.686Z,45.30
2018-06-22T08:46:35.710Z,46.07
2018-06-22T08:47:35.827Z,44.61
2018-06-22T08:48:35.777Z,43.29
2018-06-22T08:49:35.706Z,44.63
2018-06-22T08:50:35.738Z,45.21
2018-06-22T08:51:35.769Z,46.17
2018-06-22T08:52:35.769Z,46.26
2018-06-22T08:53:35.720Z,47.03
2018-06-22T08:54:35.728Z,45.98
2018-06-22T08:55:35.744Z,44.84
2018-06-22T08:56:35.749Z,44.82
2018-06-22T08:57:35.748Z,44.94
2018-06-22T08:58:35.750Z,45.18
2018-06-22T08:59:35.866Z,46.07
2018-06-22T09:00:35.785Z,46.26
2018-06-22T09:01:35.831Z,45.98
2018-06-22T09:02:35.811Z,45.11
2018-06-22T09:03:35.824Z,44.63
2018-06-22T09:04:35.780Z,45.09
2018-06-22T09:05:35.904Z,44.90
2018-06-22T09:06:35.794Z,44.63
2018-06-22T09:07:35.876Z,45.88
2018-06-22T09:08:35.815Z,45.21
2018-06-22T09:09:35.910Z,43.67
2018-06-22T09:10:35.819Z,43.27
2018-06-22T09:11:35.827Z,45.78
2018-06-22T09:12:36.722Z,43.98
2018-06-22T09:13:36.264Z,45.32
2018-06-22T09:14:35.920Z,44.56
2018-06-22T09:15:36.540Z,43.88
2018-06-22T09:16:36.287Z,44.46
2018-06-22T09:17:36.285Z,44.65
2018-06-22T09:18:36.249Z,45.64
2018-06-22T09:19:36.481Z,45.23
2018-06-22T09:20:36.175Z,45.14
2018-06-22T09:21:36.199Z,44.08
2018-06-22T09:22:36.285Z,43.79
2018-06-22T09:23:36.329Z,44.94
2018-06-22T09:24:35.930Z,43.60
2018-06-22T09:25:35.917Z,43.70
2018-06-22T09:26:35.900Z,43.31
2018-06-22T09:27:35.915Z,43.70
2018-06-22T09:28:35.978Z,43.77
2018-06-22T09:29:36.040Z,44.63
2018-06-22T09:30:35.938Z,44.92
2018-06-22T09:31:35.927Z,44.92
2018-06-22T09:32:35.950Z,46.19
2018-06-22T09:33:35.937Z,45.88
2018-06-22T09:34:35.960Z,45.21
2018-06-22T09:35:35.955Z,44.82
2018-06-22T09:36:35.960Z,45.11
2018-06-22T09:37:35.977Z,45.11
2018-06-22T09:38:35.967Z,44.65
2018-06-22T09:39:36.052Z,44.92
2018-06-22T09:40:36.068Z,43.98
2018-06-22T09:41:36.059Z,44.84
2018-06-22T09:42:36.136Z,43.74
2018-06-22T09:43:36.039Z,44.32
2018-06-22T09:44:36.030Z,45.21
2018-06-22T09:45:36.023Z,44.84
2018-06-22T09:46:36.032Z,45.14
2018-06-22T09:47:36.050Z,45.14
2018-06-22T09:48:36.027Z,44.65
2018-06-22T09:49:36.028Z,45.78
2018-06-22T09:50:36.053Z,44.73
2018-06-22T09:51:36.042Z,45.78
2018-06-22T09:52:36.068Z,46.07
2018-06-22T09:53:36.053Z,46.17
2018-06-22T09:54:36.062Z,45.23
2018-06-22T09:55:36.077Z,43.79
2018-06-22T09:56:36.142Z,44.61
2018-06-22T09:57:36.111Z,45.18
2018-06-22T09:58:36.084Z,45.21
2018-06-22T09:59:36.087Z,46.07
2018-06-22T10:00:36.147Z,46.45
2018-06-22T10:01:36.114Z,44.82
2018-06-22T10:02:36.109Z,45.23
2018-06-22T10:03:36.124Z,44.75
2018-06-22T10:04:36.118Z,44.17
2018-06-22T10:05:36.168Z,43.70
2018-06-22T10:06:36.129Z,43.79
2018-06-22T10:07:36.165Z,43.71
2018-06-22T10:08:36.225Z,44.27
2018-06-22T10:09:36.232Z,44.37
2018-06-22T10:10:36.203Z,43.79
2018-06-22T10:11:36.192Z,43.79
2018-06-22T10:12:36.175Z,45.14
2018-06-22T10:13:36.269Z,45.50
2018-06-22T10:14:36.175Z,46.07
2018-06-22T10:15:36.194Z,45.14
2018-06-22T10:16:36.188Z,45.14
2018-06-22T10:17:36.215Z,45.71
2018-06-22T10:18:36.209Z,45.23
2018-06-22T10:19:36.205Z,44.92
2018-06-22T10:20:36.214Z,44.75
2018-06-22T10:21:36.240Z,43.88
2018-06-22T10:22:36.427Z,44.82
2018-06-22T10:23:36.965Z,45.98
2018-06-22T10:24:37.798Z,45.61
2018-06-22T10:25:37.589Z,46.07
2018-06-22T10:26:36.983Z,45.98
2018-06-22T10:27:36.438Z,47.01
2018-06-22T10:28:36.632Z,46.53
2018-06-22T10:29:38.937Z,47.41
2018-06-22T10:30:36.485Z,46.55
2018-06-22T10:31:36.610Z,46.45
2018-06-22T10:32:36.377Z,45.98
2018-06-22T10:33:36.373Z,47.05
2018-06-22T10:34:36.342Z,47.53
2018-06-22T10:35:36.366Z,46.65
2018-06-22T10:36:36.358Z,46.17
2018-06-22T10:37:36.363Z,45.78
2018-06-22T10:38:36.385Z,46.07
2018-06-22T10:39:36.315Z,46.17
2018-06-22T10:40:36.316Z,46.94
2018-06-22T10:41:36.338Z,47.51
2018-06-22T10:42:36.329Z,46.43
2018-06-22T10:43:36.332Z,45.78
2018-06-22T10:44:36.342Z,46.00
2018-06-22T10:45:36.354Z,46.19
2018-06-22T10:46:36.351Z,46.36
2018-06-22T10:47:36.359Z,47.44
2018-06-22T10:48:36.360Z,46.96
2018-06-22T10:49:36.372Z,47.34
2018-06-22T10:50:36.392Z,46.89
2018-06-22T10:51:36.386Z,44.87
2018-06-22T10:52:36.460Z,45.25
2018-06-22T10:53:36.398Z,44.87
2018-06-22T10:54:36.412Z,45.92
2018-06-22T10:55:36.402Z,44.58
2018-06-22T10:56:36.469Z,45.25
2018-06-22T10:57:36.464Z,45.25
2018-06-22T10:58:36.529Z,45.23
2018-06-22T10:59:36.437Z,45.92
2018-06-22T11:00:36.525Z,45.06
2018-06-22T11:01:36.439Z,44.27
2018-06-22T11:02:36.448Z,45.61
2018-06-22T11:03:36.451Z,44.77
2018-06-22T11:04:36.461Z,44.48
2018-06-22T11:05:36.471Z,44.00
2018-06-22T11:06:36.525Z,43.81
2018-06-22T11:07:36.484Z,43.81
2018-06-22T11:08:36.502Z,44.12
2018-06-22T11:09:36.494Z,43.84
2018-06-22T11:10:36.503Z,43.64
2018-06-22T11:11:36.507Z,44.20
2018-06-22T11:12:36.512Z,44.60
2018-06-22T11:13:36.509Z,45.25
2018-06-22T11:14:36.527Z,44.79
2018-06-22T11:15:36.524Z,44.60
2018-06-22T11:16:36.528Z,44.68
2018-06-22T11:17:36.538Z,45.06
2018-06-22T11:18:36.544Z,44.96
2018-06-22T11:19:36.573Z,43.88
2018-06-22T11:20:36.556Z,43.70
2018-06-22T11:21:36.577Z,45.23
2018-06-22T11:22:36.571Z,45.90
2018-06-22T11:23:36.572Z,44.65
2018-06-22T11:24:36.612Z,44.46
2018-06-22T11:25:36.582Z,45.30
2018-06-22T11:26:36.660Z,46.19
2018-06-22T11:27:36.702Z,44.87
2018-06-22T11:28:36.614Z,43.91
2018-06-22T11:29:36.604Z,43.81
2018-06-22T11:30:36.616Z,44.87
2018-06-22T11:31:36.621Z,45.92
2018-06-22T11:32:36.628Z,45.25
2018-06-22T11:33:36.630Z,45.06
2018-06-22T11:34:36.684Z,45.08
2018-06-22T11:35:36.651Z,44.99
2018-06-22T11:36:36.653Z,44.60
2018-06-22T11:37:36.652Z,45.47
2018-06-22T11:38:36.659Z,43.95
2018-06-22T11:39:36.680Z,44.62
2018-06-22T11:40:36.792Z,44.99
2018-06-22T11:41:36.696Z,44.02
2018-06-22T11:42:36.708Z,44.12
2018-06-22T11:43:36.732Z,44.05
2018-06-22T11:44:36.704Z,43.66
2018-06-22T11:45:36.714Z,43.66
2018-06-22T11:46:36.854Z,44.14
2018-06-22T11:47:36.720Z,43.49
2018-06-22T11:48:36.736Z,43.49
2018-06-22T11:49:36.735Z,43.80
2018-06-22T11:50:36.739Z,44.38
2018-06-22T11:51:36.744Z,43.49
2018-06-22T11:52:36.764Z,42.36
2018-06-22T11:53:36.760Z,41.88
2018-06-22T11:54:36.764Z,42.91
2018-06-22T11:55:36.779Z,43.97
2018-06-22T11:56:36.821Z,43.78
2018-06-22T11:57:36.785Z,43.30
2018-06-22T11:58:36.845Z,42.50
2018-06-22T11:59:36.802Z,42.80
2018-06-22T12:00:36.808Z,42.63
2018-06-22T12:01:36.868Z,44.65
2018-06-22T12:02:36.867Z,43.28
2018-06-22T12:03:36.826Z,43.37
2018-06-22T12:04:36.858Z,43.08
2018-06-22T12:05:36.861Z,43.54
2018-06-22T12:06:36.930Z,44.00
2018-06-22T12:07:36.941Z,43.74
2018-06-22T12:08:36.880Z,43.28
2018-06-22T12:09:36.901Z,42.89
2018-06-22T12:10:36.877Z,42.60
2018-06-22T12:11:36.888Z,42.89
2018-06-22T12:12:36.886Z,42.60
2018-06-22T12:13:36.897Z,43.08
2018-06-22T12:14:36.945Z,43.85
2018-06-22T12:15:36.955Z,45.29
2018-06-22T12:16:37.173Z,44.91
2018-06-22T12:17:37.603Z,44.34
2018-06-22T12:18:36.935Z,43.95
2018-06-22T12:19:37.013Z,43.49
2018-06-22T12:20:37.040Z,42.70
2018-06-22T12:21:37.001Z,43.18
2018-06-22T12:22:36.963Z,42.91
2018-06-22T12:23:37.077Z,42.53
2018-06-22T12:24:37.069Z,42.43
2018-06-22T12:25:37.092Z,43.20
2018-06-22T12:26:36.983Z,42.60
2018-06-22T12:27:37.059Z,42.32
2018-06-22T12:28:37.037Z,42.32
2018-06-22T12:29:37.048Z,43.57
2018-06-22T12:30:37.107Z,44.53
2018-06-22T12:31:37.046Z,45.59
2018-06-22T12:32:37.046Z,44.24
2018-06-22T12:33:37.085Z,43.66
2018-06-22T12:34:37.048Z,43.85
2018-06-22T12:35:37.092Z,44.82
2018-06-22T12:36:37.044Z,44.22
2018-06-22T12:37:37.055Z,43.16
2018-06-22T12:38:37.136Z,42.80
2018-06-22T12:39:37.117Z,43.85
2018-06-22T12:40:37.149Z,43.88
2018-06-22T12:41:37.077Z,43.76
2018-06-22T12:42:37.135Z,43.76
2018-06-22T12:43:37.093Z,43.76
2018-06-22T12:44:37.133Z,43.20
2018-06-22T12:45:37.109Z,43.78
2018-06-22T12:46:37.122Z,43.71
2018-06-22T12:47:37.129Z,43.30
2018-06-22T12:48:37.131Z,43.40
2018-06-22T12:49:37.135Z,43.20
2018-06-22T12:50:37.267Z,43.71
2018-06-22T12:51:37.146Z,43.51
2018-06-22T12:52:37.183Z,41.56